sensor_id;sensor_type;location;lat;lon;timestamp;P1;durP1;ratioP1;P2;durP2;ratioP2
4835;SDS011;2432;51.226;6.904;2022-12-29T00:01:56;8.67;;;2.17;;
4835;SDS011;2432;51.226;6.904;2022-12-29T00:04:22;9.50;;;2.60;;
4835;SDS011;2432;51.226;6.904;2022-12-29T00:06:48;9.23;;;2.10;;
4835;SDS011;2432;51.226;6.904;2022-12-29T00:09:15;10.30;;;2.50;;
4835;SDS011;2432;51.226;6.904;2022-12-29T00:11:42;9.40;;;2.67;;
4835;SDS011;2432;51.226;6.904;2022-12-29T00:14:09;7.80;;;2.00;;
4835;SDS011;2432;51.226;6.904;2022-12-29T00:16:55;8.80;;;2.20;;
4835;SDS011;2432;51.226;6.904;2022-12-29T00:19:22;8.43;;;1.93;;
4835;SDS011;2432;51.226;6.904;2022-12-29T00:22:09;9.40;;;2.20;;
4835;SDS011;2432;51.226;6.904;2022-12-29T00:24:56;9.20;;;2.70;;
4835;SDS011;2432;51.226;6.904;2022-12-29T00:27:43;9.17;;;2.50;;
4835;SDS011;2432;51.226;6.904;2022-12-29T00:30:32;7.70;;;1.80;;
4835;SDS011;2432;51.226;6.904;2022-12-29T00:33:19;8.77;;;2.00;;
4835;SDS011;2432;51.226;6.904;2022-12-29T00:36:11;7.70;;;1.80;;
4835;SDS011;2432;51.226;6.904;2022-12-29T00:38:55;8.70;;;2.10;;
4835;SDS011;2432;51.226;6.904;2022-12-29T00:41:44;10.13;;;2.33;;
4835;SDS011;2432;51.226;6.904;2022-12-29T00:44:30;8.93;;;2.20;;
4835;SDS011;2432;51.226;6.904;2022-12-29T00:46:56;10.87;;;2.43;;
4835;SDS011;2432;51.226;6.904;2022-12-29T00:49:23;8.20;;;2.10;;
4835;SDS011;2432;51.226;6.904;2022-12-29T00:52:06;8.10;;;2.17;;
4835;SDS011;2432;51.226;6.904;2022-12-29T00:54:35;8.43;;;2.10;;
4835;SDS011;2432;51.226;6.904;2022-12-29T00:57:03;8.00;;;2.10;;
4835;SDS011;2432;51.226;6.904;2022-12-29T00:59:31;9.00;;;2.10;;
4835;SDS011;2432;51.226;6.904;2022-12-29T01:01:57;8.00;;;1.70;;
4835;SDS011;2432;51.226;6.904;2022-12-29T01:04:25;7.57;;;1.83;;
4835;SDS011;2432;51.226;6.904;2022-12-29T01:06:52;8.20;;;1.63;;
4835;SDS011;2432;51.226;6.904;2022-12-29T01:09:19;9.30;;;1.80;;
4835;SDS011;2432;51.226;6.904;2022-12-29T01:12:04;7.53;;;1.50;;
4835;SDS011;2432;51.226;6.904;2022-12-29T01:14:32;8.10;;;1.60;;
4835;SDS011;2432;51.226;6.904;2022-12-29T01:16:58;7.57;;;1.60;;
4835;SDS011;2432;51.226;6.904;2022-12-29T01:19:25;7.67;;;1.63;;
4835;SDS011;2432;51.226;6.904;2022-12-29T01:21:52;8.60;;;1.33;;
4835;SDS011;2432;51.226;6.904;2022-12-29T01:24:19;7.60;;;1.40;;
4835;SDS011;2432;51.226;6.904;2022-12-29T01:26:46;7.00;;;1.30;;
4835;SDS011;2432;51.226;6.904;2022-12-29T01:29:14;7.80;;;1.30;;
4835;SDS011;2432;51.226;6.904;2022-12-29T01:31:42;7.70;;;1.20;;
4835;SDS011;2432;51.226;6.904;2022-12-29T01:34:08;7.70;;;1.30;;
4835;SDS011;2432;51.226;6.904;2022-12-29T01:36:35;7.03;;;1.00;;
4835;SDS011;2432;51.226;6.904;2022-12-29T01:39:01;7.50;;;1.40;;
4835;SDS011;2432;51.226;6.904;2022-12-29T01:41:28;7.80;;;1.10;;
4835;SDS011;2432;51.226;6.904;2022-12-29T01:43:58;7.40;;;1.07;;
4835;SDS011;2432;51.226;6.904;2022-12-29T01:46:31;6.90;;;1.00;;
4835;SDS011;2432;51.226;6.904;2022-12-29T01:49:04;8.17;;;1.17;;
4835;SDS011;2432;51.226;6.904;2022-12-29T01:51:41;7.63;;;1.00;;
4835;SDS011;2432;51.226;6.904;2022-12-29T01:54:22;9.10;;;1.10;;
4835;SDS011;2432;51.226;6.904;2022-12-29T01:56:53;7.87;;;1.30;;
4835;SDS011;2432;51.226;6.904;2022-12-29T01:59:24;8.27;;;1.20;;
4835;SDS011;2432;51.226;6.904;2022-12-29T02:01:55;9.63;;;1.40;;
4835;SDS011;2432;51.226;6.904;2022-12-29T02:04:22;7.97;;;1.20;;
4835;SDS011;2432;51.226;6.904;2022-12-29T02:06:51;8.80;;;1.10;;
4835;SDS011;2432;51.226;6.904;2022-12-29T02:09:21;8.73;;;1.20;;
4835;SDS011;2432;51.226;6.904;2022-12-29T02:11:49;8.47;;;1.20;;
4835;SDS011;2432;51.226;6.904;2022-12-29T02:14:16;7.80;;;1.20;;
4835;SDS011;2432;51.226;6.904;2022-12-29T02:35:59;9.53;;;1.40;;
4835;SDS011;2432;51.226;6.904;2022-12-29T02:46:23;9.77;;;1.63;;
4835;SDS011;2432;51.226;6.904;2022-12-29T02:51:34;9.70;;;1.40;;
4835;SDS011;2432;51.226;6.904;2022-12-29T02:54:06;7.43;;;1.50;;
4835;SDS011;2432;51.226;6.904;2022-12-29T02:56:51;8.23;;;1.63;;
4835;SDS011;2432;51.226;6.904;2022-12-29T02:59:18;8.93;;;1.43;;
4835;SDS011;2432;51.226;6.904;2022-12-29T03:07:19;8.90;;;1.73;;
4835;SDS011;2432;51.226;6.904;2022-12-29T03:12:54;8.43;;;1.57;;
4835;SDS011;2432;51.226;6.904;2022-12-29T03:15:44;7.63;;;1.30;;
4835;SDS011;2432;51.226;6.904;2022-12-29T03:18:30;8.43;;;1.40;;
4835;SDS011;2432;51.226;6.904;2022-12-29T03:21:25;8.47;;;1.20;;
4835;SDS011;2432;51.226;6.904;2022-12-29T03:24:19;8.80;;;1.30;;
4835;SDS011;2432;51.226;6.904;2022-12-29T03:26:54;9.10;;;1.40;;
4835;SDS011;2432;51.226;6.904;2022-12-29T03:29:24;8.13;;;1.37;;
4835;SDS011;2432;51.226;6.904;2022-12-29T03:31:54;8.30;;;1.50;;
4835;SDS011;2432;51.226;6.904;2022-12-29T03:34:22;8.47;;;1.40;;
4835;SDS011;2432;51.226;6.904;2022-12-29T03:36:55;8.23;;;1.10;;
4835;SDS011;2432;51.226;6.904;2022-12-29T03:39:29;8.33;;;1.30;;
4835;SDS011;2432;51.226;6.904;2022-12-29T03:41:57;7.93;;;1.30;;
4835;SDS011;2432;51.226;6.904;2022-12-29T03:44:31;8.20;;;1.33;;
4835;SDS011;2432;51.226;6.904;2022-12-29T03:47:06;10.50;;;1.63;;
4835;SDS011;2432;51.226;6.904;2022-12-29T03:49:33;8.33;;;1.40;;
4835;SDS011;2432;51.226;6.904;2022-12-29T03:52:00;7.90;;;1.20;;
4835;SDS011;2432;51.226;6.904;2022-12-29T03:54:26;7.93;;;1.30;;
4835;SDS011;2432;51.226;6.904;2022-12-29T03:56:53;9.07;;;1.30;;
4835;SDS011;2432;51.226;6.904;2022-12-29T03:59:19;8.00;;;1.30;;
4835;SDS011;2432;51.226;6.904;2022-12-29T04:01:46;7.80;;;1.23;;
4835;SDS011;2432;51.226;6.904;2022-12-29T04:04:13;7.60;;;1.20;;
4835;SDS011;2432;51.226;6.904;2022-12-29T04:06:39;7.80;;;1.43;;
4835;SDS011;2432;51.226;6.904;2022-12-29T04:09:06;7.47;;;1.10;;
4835;SDS011;2432;51.226;6.904;2022-12-29T04:11:33;7.60;;;1.20;;
4835;SDS011;2432;51.226;6.904;2022-12-29T04:13:59;8.00;;;1.13;;
4835;SDS011;2432;51.226;6.904;2022-12-29T04:16:26;7.50;;;1.10;;
4835;SDS011;2432;51.226;6.904;2022-12-29T04:18:52;8.73;;;1.40;;
4835;SDS011;2432;51.226;6.904;2022-12-29T04:21:19;7.67;;;1.20;;
4835;SDS011;2432;51.226;6.904;2022-12-29T04:23:45;8.43;;;1.27;;
4835;SDS011;2432;51.226;6.904;2022-12-29T04:26:12;10.07;;;2.80;;
4835;SDS011;2432;51.226;6.904;2022-12-29T04:28:39;7.83;;;1.33;;
4835;SDS011;2432;51.226;6.904;2022-12-29T04:31:06;8.80;;;1.50;;
4835;SDS011;2432;51.226;6.904;2022-12-29T04:33:33;8.03;;;1.20;;
4835;SDS011;2432;51.226;6.904;2022-12-29T04:35:59;8.10;;;1.40;;
4835;SDS011;2432;51.226;6.904;2022-12-29T04:38:26;8.43;;;1.57;;
4835;SDS011;2432;51.226;6.904;2022-12-29T04:40:52;7.87;;;1.20;;
4835;SDS011;2432;51.226;6.904;2022-12-29T04:43:19;7.50;;;1.13;;
4835;SDS011;2432;51.226;6.904;2022-12-29T04:45:46;7.60;;;1.30;;
4835;SDS011;2432;51.226;6.904;2022-12-29T04:48:12;8.10;;;1.37;;
4835;SDS011;2432;51.226;6.904;2022-12-29T04:50:40;8.50;;;1.43;;
4835;SDS011;2432;51.226;6.904;2022-12-29T04:53:07;10.10;;;1.47;;
4835;SDS011;2432;51.226;6.904;2022-12-29T04:55:34;9.30;;;1.40;;
4835;SDS011;2432;51.226;6.904;2022-12-29T04:58:00;9.77;;;1.57;;
4835;SDS011;2432;51.226;6.904;2022-12-29T05:00:27;8.47;;;1.33;;
4835;SDS011;2432;51.226;6.904;2022-12-29T05:02:53;7.80;;;1.13;;
4835;SDS011;2432;51.226;6.904;2022-12-29T05:05:20;8.87;;;1.37;;
4835;SDS011;2432;51.226;6.904;2022-12-29T05:07:46;10.07;;;1.50;;
4835;SDS011;2432;51.226;6.904;2022-12-29T05:10:13;9.90;;;1.80;;
4835;SDS011;2432;51.226;6.904;2022-12-29T05:12:40;8.03;;;1.40;;
4835;SDS011;2432;51.226;6.904;2022-12-29T05:15:07;9.40;;;1.43;;
4835;SDS011;2432;51.226;6.904;2022-12-29T05:17:35;8.40;;;1.20;;
4835;SDS011;2432;51.226;6.904;2022-12-29T05:20:02;7.87;;;1.20;;
4835;SDS011;2432;51.226;6.904;2022-12-29T05:22:30;8.20;;;1.27;;
4835;SDS011;2432;51.226;6.904;2022-12-29T05:24:56;8.53;;;1.30;;
4835;SDS011;2432;51.226;6.904;2022-12-29T05:27:23;9.10;;;1.50;;
4835;SDS011;2432;51.226;6.904;2022-12-29T05:29:49;8.53;;;1.53;;
4835;SDS011;2432;51.226;6.904;2022-12-29T05:32:16;9.73;;;1.60;;
4835;SDS011;2432;51.226;6.904;2022-12-29T05:34:44;8.50;;;1.40;;
4835;SDS011;2432;51.226;6.904;2022-12-29T05:37:10;8.10;;;1.30;;
4835;SDS011;2432;51.226;6.904;2022-12-29T05:39:37;10.03;;;1.70;;
4835;SDS011;2432;51.226;6.904;2022-12-29T05:42:03;9.00;;;1.40;;
4835;SDS011;2432;51.226;6.904;2022-12-29T05:44:29;10.13;;;1.70;;
4835;SDS011;2432;51.226;6.904;2022-12-29T05:46:56;8.27;;;1.30;;
4835;SDS011;2432;51.226;6.904;2022-12-29T05:49:23;8.63;;;1.37;;
4835;SDS011;2432;51.226;6.904;2022-12-29T05:51:49;9.00;;;1.70;;
4835;SDS011;2432;51.226;6.904;2022-12-29T05:54:15;8.77;;;1.30;;
4835;SDS011;2432;51.226;6.904;2022-12-29T05:56:42;10.80;;;1.50;;
4835;SDS011;2432;51.226;6.904;2022-12-29T05:59:08;8.73;;;1.20;;
4835;SDS011;2432;51.226;6.904;2022-12-29T06:01:35;8.57;;;1.33;;
4835;SDS011;2432;51.226;6.904;2022-12-29T06:04:02;13.10;;;1.80;;
4835;SDS011;2432;51.226;6.904;2022-12-29T06:06:28;11.57;;;2.00;;
4835;SDS011;2432;51.226;6.904;2022-12-29T06:08:55;9.37;;;1.53;;
4835;SDS011;2432;51.226;6.904;2022-12-29T06:11:21;10.80;;;1.50;;
4835;SDS011;2432;51.226;6.904;2022-12-29T06:13:48;14.13;;;1.83;;
4835;SDS011;2432;51.226;6.904;2022-12-29T06:16:14;10.70;;;1.60;;
4835;SDS011;2432;51.226;6.904;2022-12-29T06:18:41;8.50;;;1.43;;
4835;SDS011;2432;51.226;6.904;2022-12-29T06:21:08;9.70;;;1.60;;
4835;SDS011;2432;51.226;6.904;2022-12-29T06:23:34;9.90;;;1.57;;
4835;SDS011;2432;51.226;6.904;2022-12-29T06:26:01;9.03;;;1.40;;
4835;SDS011;2432;51.226;6.904;2022-12-29T06:28:27;11.80;;;1.70;;
4835;SDS011;2432;51.226;6.904;2022-12-29T06:30:54;8.20;;;1.30;;
4835;SDS011;2432;51.226;6.904;2022-12-29T06:33:20;10.03;;;1.67;;
4835;SDS011;2432;51.226;6.904;2022-12-29T06:35:47;8.90;;;1.40;;
4835;SDS011;2432;51.226;6.904;2022-12-29T06:38:14;8.97;;;1.50;;
4835;SDS011;2432;51.226;6.904;2022-12-29T06:40:42;8.87;;;1.47;;
4835;SDS011;2432;51.226;6.904;2022-12-29T06:43:11;11.07;;;1.60;;
4835;SDS011;2432;51.226;6.904;2022-12-29T06:45:38;10.63;;;1.50;;
4835;SDS011;2432;51.226;6.904;2022-12-29T06:48:06;7.60;;;1.40;;
4835;SDS011;2432;51.226;6.904;2022-12-29T06:50:33;9.27;;;1.60;;
4835;SDS011;2432;51.226;6.904;2022-12-29T06:52:59;9.20;;;1.20;;
4835;SDS011;2432;51.226;6.904;2022-12-29T06:55:26;12.83;;;1.90;;
4835;SDS011;2432;51.226;6.904;2022-12-29T06:57:55;8.23;;;1.60;;
4835;SDS011;2432;51.226;6.904;2022-12-29T07:00:22;8.40;;;1.57;;
4835;SDS011;2432;51.226;6.904;2022-12-29T07:02:49;9.57;;;1.50;;
4835;SDS011;2432;51.226;6.904;2022-12-29T07:05:16;11.77;;;2.30;;
4835;SDS011;2432;51.226;6.904;2022-12-29T07:07:43;11.70;;;1.93;;
4835;SDS011;2432;51.226;6.904;2022-12-29T07:10:09;10.17;;;1.70;;
4835;SDS011;2432;51.226;6.904;2022-12-29T07:12:36;10.40;;;1.50;;
4835;SDS011;2432;51.226;6.904;2022-12-29T07:15:02;8.90;;;1.50;;
4835;SDS011;2432;51.226;6.904;2022-12-29T07:17:29;12.00;;;1.37;;
4835;SDS011;2432;51.226;6.904;2022-12-29T07:19:56;10.80;;;1.50;;
4835;SDS011;2432;51.226;6.904;2022-12-29T07:22:22;10.73;;;1.70;;
4835;SDS011;2432;51.226;6.904;2022-12-29T07:24:48;8.90;;;1.17;;
4835;SDS011;2432;51.226;6.904;2022-12-29T07:27:15;8.83;;;1.70;;
4835;SDS011;2432;51.226;6.904;2022-12-29T07:29:42;10.83;;;1.63;;
4835;SDS011;2432;51.226;6.904;2022-12-29T07:32:08;10.23;;;1.60;;
4835;SDS011;2432;51.226;6.904;2022-12-29T07:34:35;12.57;;;1.70;;
4835;SDS011;2432;51.226;6.904;2022-12-29T07:37:01;10.37;;;1.27;;
4835;SDS011;2432;51.226;6.904;2022-12-29T07:39:27;10.97;;;2.00;;
4835;SDS011;2432;51.226;6.904;2022-12-29T07:41:54;9.80;;;2.33;;
4835;SDS011;2432;51.226;6.904;2022-12-29T07:44:29;9.17;;;1.57;;
4835;SDS011;2432;51.226;6.904;2022-12-29T07:46:56;11.10;;;1.90;;
4835;SDS011;2432;51.226;6.904;2022-12-29T07:49:24;9.30;;;1.40;;
4835;SDS011;2432;51.226;6.904;2022-12-29T07:51:50;11.07;;;1.87;;
4835;SDS011;2432;51.226;6.904;2022-12-29T07:54:17;11.83;;;1.97;;
4835;SDS011;2432;51.226;6.904;2022-12-29T07:56:49;8.67;;;1.53;;
4835;SDS011;2432;51.226;6.904;2022-12-29T07:59:20;11.00;;;1.70;;
4835;SDS011;2432;51.226;6.904;2022-12-29T08:01:46;12.20;;;1.97;;
4835;SDS011;2432;51.226;6.904;2022-12-29T08:04:13;10.10;;;1.37;;
4835;SDS011;2432;51.226;6.904;2022-12-29T08:06:40;11.40;;;1.50;;
4835;SDS011;2432;51.226;6.904;2022-12-29T08:09:07;9.53;;;1.70;;
4835;SDS011;2432;51.226;6.904;2022-12-29T08:11:43;10.47;;;1.93;;
4835;SDS011;2432;51.226;6.904;2022-12-29T08:14:10;9.53;;;1.47;;
4835;SDS011;2432;51.226;6.904;2022-12-29T08:16:37;14.03;;;1.93;;
4835;SDS011;2432;51.226;6.904;2022-12-29T08:19:03;14.70;;;2.07;;
4835;SDS011;2432;51.226;6.904;2022-12-29T08:21:31;12.27;;;1.60;;
4835;SDS011;2432;51.226;6.904;2022-12-29T08:23:58;13.83;;;1.80;;
4835;SDS011;2432;51.226;6.904;2022-12-29T08:26:25;9.00;;;1.77;;
4835;SDS011;2432;51.226;6.904;2022-12-29T08:28:54;10.23;;;1.73;;
4835;SDS011;2432;51.226;6.904;2022-12-29T08:31:22;13.17;;;1.73;;
4835;SDS011;2432;51.226;6.904;2022-12-29T08:33:49;12.43;;;1.90;;
4835;SDS011;2432;51.226;6.904;2022-12-29T08:36:16;14.80;;;2.23;;
4835;SDS011;2432;51.226;6.904;2022-12-29T08:38:44;12.23;;;2.00;;
4835;SDS011;2432;51.226;6.904;2022-12-29T08:41:10;12.93;;;2.30;;
4835;SDS011;2432;51.226;6.904;2022-12-29T08:43:37;14.53;;;2.33;;
4835;SDS011;2432;51.226;6.904;2022-12-29T08:46:04;11.80;;;2.03;;
4835;SDS011;2432;51.226;6.904;2022-12-29T08:48:31;13.87;;;2.07;;
4835;SDS011;2432;51.226;6.904;2022-12-29T08:50:57;14.60;;;2.10;;
4835;SDS011;2432;51.226;6.904;2022-12-29T08:53:24;11.33;;;1.90;;
4835;SDS011;2432;51.226;6.904;2022-12-29T08:55:57;12.90;;;1.73;;
4835;SDS011;2432;51.226;6.904;2022-12-29T08:58:30;10.50;;;1.83;;
4835;SDS011;2432;51.226;6.904;2022-12-29T09:00:58;12.27;;;1.60;;
4835;SDS011;2432;51.226;6.904;2022-12-29T09:03:25;13.57;;;2.17;;
4835;SDS011;2432;51.226;6.904;2022-12-29T09:06:12;13.07;;;2.93;;
4835;SDS011;2432;51.226;6.904;2022-12-29T09:08:41;9.77;;;2.10;;
4835;SDS011;2432;51.226;6.904;2022-12-29T09:11:15;9.27;;;1.83;;
4835;SDS011;2432;51.226;6.904;2022-12-29T09:13:44;11.80;;;2.00;;
4835;SDS011;2432;51.226;6.904;2022-12-29T09:16:10;10.73;;;1.70;;
4835;SDS011;2432;51.226;6.904;2022-12-29T09:18:38;10.73;;;1.90;;
4835;SDS011;2432;51.226;6.904;2022-12-29T09:21:05;10.03;;;2.03;;
4835;SDS011;2432;51.226;6.904;2022-12-29T09:23:33;16.53;;;2.27;;
4835;SDS011;2432;51.226;6.904;2022-12-29T09:26:00;16.30;;;2.90;;
4835;SDS011;2432;51.226;6.904;2022-12-29T09:28:27;15.37;;;2.03;;
4835;SDS011;2432;51.226;6.904;2022-12-29T09:30:55;14.70;;;2.67;;
4835;SDS011;2432;51.226;6.904;2022-12-29T09:33:23;18.07;;;2.20;;
4835;SDS011;2432;51.226;6.904;2022-12-29T09:35:51;13.13;;;2.20;;
4835;SDS011;2432;51.226;6.904;2022-12-29T09:38:23;14.93;;;2.30;;
4835;SDS011;2432;51.226;6.904;2022-12-29T09:40:52;16.10;;;2.10;;
4835;SDS011;2432;51.226;6.904;2022-12-29T09:43:48;10.93;;;2.03;;
4835;SDS011;2432;51.226;6.904;2022-12-29T09:46:18;11.30;;;1.93;;
4835;SDS011;2432;51.226;6.904;2022-12-29T09:48:47;10.83;;;1.73;;
4835;SDS011;2432;51.226;6.904;2022-12-29T09:51:21;13.53;;;3.40;;
4835;SDS011;2432;51.226;6.904;2022-12-29T09:53:57;15.87;;;2.33;;
4835;SDS011;2432;51.226;6.904;2022-12-29T09:56:26;15.17;;;2.07;;
4835;SDS011;2432;51.226;6.904;2022-12-29T09:59:02;12.00;;;2.10;;
4835;SDS011;2432;51.226;6.904;2022-12-29T10:01:34;14.77;;;2.10;;
4835;SDS011;2432;51.226;6.904;2022-12-29T10:04:07;17.23;;;2.50;;
4835;SDS011;2432;51.226;6.904;2022-12-29T10:12:50;15.73;;;2.20;;
4835;SDS011;2432;51.226;6.904;2022-12-29T10:23:55;17.13;;;2.37;;
4835;SDS011;2432;51.226;6.904;2022-12-29T10:26:31;16.43;;;1.90;;
4835;SDS011;2432;51.226;6.904;2022-12-29T10:31:37;14.07;;;2.27;;
4835;SDS011;2432;51.226;6.904;2022-12-29T10:34:15;13.03;;;1.93;;
4835;SDS011;2432;51.226;6.904;2022-12-29T10:36:49;12.87;;;2.10;;
4835;SDS011;2432;51.226;6.904;2022-12-29T10:39:39;14.57;;;2.43;;
4835;SDS011;2432;51.226;6.904;2022-12-29T10:42:24;14.83;;;2.60;;
4835;SDS011;2432;51.226;6.904;2022-12-29T10:44:56;15.60;;;2.20;;
4835;SDS011;2432;51.226;6.904;2022-12-29T10:47:25;18.70;;;2.30;;
4835;SDS011;2432;51.226;6.904;2022-12-29T10:49:57;14.70;;;2.23;;
4835;SDS011;2432;51.226;6.904;2022-12-29T10:52:24;15.33;;;2.20;;
4835;SDS011;2432;51.226;6.904;2022-12-29T10:54:54;14.73;;;2.30;;
4835;SDS011;2432;51.226;6.904;2022-12-29T10:57:31;13.60;;;2.00;;
4835;SDS011;2432;51.226;6.904;2022-12-29T11:00:00;15.80;;;3.40;;
4835;SDS011;2432;51.226;6.904;2022-12-29T11:05:41;14.27;;;2.10;;
4835;SDS011;2432;51.226;6.904;2022-12-29T11:08:15;15.50;;;2.60;;
4835;SDS011;2432;51.226;6.904;2022-12-29T11:10:45;11.03;;;1.63;;
4835;SDS011;2432;51.226;6.904;2022-12-29T11:13:16;12.17;;;1.93;;
4835;SDS011;2432;51.226;6.904;2022-12-29T11:15:51;11.93;;;1.60;;
4835;SDS011;2432;51.226;6.904;2022-12-29T11:18:25;14.50;;;2.20;;
4835;SDS011;2432;51.226;6.904;2022-12-29T11:21:00;10.80;;;1.87;;
4835;SDS011;2432;51.226;6.904;2022-12-29T11:23:30;13.50;;;2.07;;
4835;SDS011;2432;51.226;6.904;2022-12-29T11:28:40;17.60;;;2.03;;
4835;SDS011;2432;51.226;6.904;2022-12-29T11:31:08;18.83;;;2.27;;
4835;SDS011;2432;51.226;6.904;2022-12-29T11:33:36;16.20;;;2.87;;
4835;SDS011;2432;51.226;6.904;2022-12-29T11:36:10;18.30;;;2.50;;
4835;SDS011;2432;51.226;6.904;2022-12-29T11:38:40;15.43;;;2.10;;
4835;SDS011;2432;51.226;6.904;2022-12-29T11:41:12;13.77;;;2.00;;
4835;SDS011;2432;51.226;6.904;2022-12-29T11:43:45;14.30;;;1.93;;
4835;SDS011;2432;51.226;6.904;2022-12-29T11:46:14;15.37;;;2.30;;
4835;SDS011;2432;51.226;6.904;2022-12-29T11:48:45;13.23;;;2.03;;
4835;SDS011;2432;51.226;6.904;2022-12-29T11:51:12;12.43;;;1.90;;
4835;SDS011;2432;51.226;6.904;2022-12-29T11:53:51;23.40;;;2.47;;
4835;SDS011;2432;51.226;6.904;2022-12-29T11:56:32;18.70;;;2.60;;
4835;SDS011;2432;51.226;6.904;2022-12-29T11:59:34;19.63;;;3.07;;
4835;SDS011;2432;51.226;6.904;2022-12-29T12:02:18;17.83;;;2.63;;
4835;SDS011;2432;51.226;6.904;2022-12-29T12:04:52;15.53;;;2.50;;
4835;SDS011;2432;51.226;6.904;2022-12-29T12:07:34;17.47;;;2.33;;
4835;SDS011;2432;51.226;6.904;2022-12-29T12:10:19;14.10;;;2.13;;
4835;SDS011;2432;51.226;6.904;2022-12-29T12:12:55;12.53;;;1.90;;
4835;SDS011;2432;51.226;6.904;2022-12-29T12:15:36;16.80;;;2.10;;
4835;SDS011;2432;51.226;6.904;2022-12-29T12:18:21;22.40;;;3.00;;
4835;SDS011;2432;51.226;6.904;2022-12-29T12:24:03;18.10;;;2.57;;
4835;SDS011;2432;51.226;6.904;2022-12-29T12:29:32;14.90;;;2.17;;
4835;SDS011;2432;51.226;6.904;2022-12-29T12:34:49;18.17;;;2.50;;
4835;SDS011;2432;51.226;6.904;2022-12-29T12:37:26;17.50;;;3.30;;
4835;SDS011;2432;51.226;6.904;2022-12-29T12:43:09;17.77;;;2.97;;
4835;SDS011;2432;51.226;6.904;2022-12-29T12:45:53;18.13;;;2.17;;
4835;SDS011;2432;51.226;6.904;2022-12-29T13:00:27;12.77;;;1.90;;
4835;SDS011;2432;51.226;6.904;2022-12-29T13:06:39;21.37;;;2.43;;
4835;SDS011;2432;51.226;6.904;2022-12-29T13:09:13;21.20;;;2.93;;
4835;SDS011;2432;51.226;6.904;2022-12-29T13:12:08;15.73;;;2.47;;
4835;SDS011;2432;51.226;6.904;2022-12-29T13:18:16;13.33;;;2.10;;
4835;SDS011;2432;51.226;6.904;2022-12-29T13:20:53;21.67;;;2.97;;
4835;SDS011;2432;51.226;6.904;2022-12-29T13:28:37;21.63;;;2.70;;
4835;SDS011;2432;51.226;6.904;2022-12-29T13:34:24;15.90;;;2.30;;
4835;SDS011;2432;51.226;6.904;2022-12-29T13:37:11;12.83;;;1.90;;
4835;SDS011;2432;51.226;6.904;2022-12-29T13:39:46;14.97;;;2.73;;
4835;SDS011;2432;51.226;6.904;2022-12-29T13:42:17;17.73;;;2.67;;
4835;SDS011;2432;51.226;6.904;2022-12-29T13:44:46;11.80;;;2.00;;
4835;SDS011;2432;51.226;6.904;2022-12-29T13:50:03;13.33;;;1.93;;
4835;SDS011;2432;51.226;6.904;2022-12-29T13:55:35;18.57;;;2.13;;
4835;SDS011;2432;51.226;6.904;2022-12-29T14:01:12;11.80;;;2.30;;
4835;SDS011;2432;51.226;6.904;2022-12-29T14:03:43;11.10;;;2.23;;
4835;SDS011;2432;51.226;6.904;2022-12-29T14:06:27;14.23;;;2.00;;
4835;SDS011;2432;51.226;6.904;2022-12-29T14:09:03;10.63;;;1.70;;
4835;SDS011;2432;51.226;6.904;2022-12-29T14:11:32;11.03;;;1.97;;
4835;SDS011;2432;51.226;6.904;2022-12-29T14:16:47;12.50;;;1.97;;
4835;SDS011;2432;51.226;6.904;2022-12-29T14:19:22;10.10;;;1.60;;
4835;SDS011;2432;51.226;6.904;2022-12-29T14:21:54;13.90;;;1.80;;
4835;SDS011;2432;51.226;6.904;2022-12-29T14:34:56;12.43;;;2.00;;
4835;SDS011;2432;51.226;6.904;2022-12-29T14:37:43;13.53;;;2.37;;
4835;SDS011;2432;51.226;6.904;2022-12-29T14:40:22;14.00;;;1.87;;
4835;SDS011;2432;51.226;6.904;2022-12-29T14:42:54;9.80;;;1.93;;
4835;SDS011;2432;51.226;6.904;2022-12-29T14:45:26;12.60;;;2.10;;
4835;SDS011;2432;51.226;6.904;2022-12-29T14:47:55;12.50;;;2.00;;
4835;SDS011;2432;51.226;6.904;2022-12-29T14:50:23;15.27;;;2.10;;
4835;SDS011;2432;51.226;6.904;2022-12-29T14:53:10;13.93;;;1.90;;
4835;SDS011;2432;51.226;6.904;2022-12-29T14:56:15;15.87;;;2.20;;
4835;SDS011;2432;51.226;6.904;2022-12-29T14:58:53;15.60;;;2.20;;
4835;SDS011;2432;51.226;6.904;2022-12-29T15:07:02;15.93;;;1.77;;
4835;SDS011;2432;51.226;6.904;2022-12-29T15:09:34;11.00;;;1.73;;
4835;SDS011;2432;51.226;6.904;2022-12-29T15:14:51;14.90;;;2.97;;
4835;SDS011;2432;51.226;6.904;2022-12-29T15:17:27;18.73;;;3.73;;
4835;SDS011;2432;51.226;6.904;2022-12-29T15:20:01;14.67;;;2.13;;
4835;SDS011;2432;51.226;6.904;2022-12-29T15:22:50;10.57;;;1.60;;
4835;SDS011;2432;51.226;6.904;2022-12-29T15:25:20;10.93;;;2.10;;
4835;SDS011;2432;51.226;6.904;2022-12-29T15:27:50;14.43;;;2.47;;
4835;SDS011;2432;51.226;6.904;2022-12-29T15:30:18;10.80;;;1.87;;
4835;SDS011;2432;51.226;6.904;2022-12-29T15:32:46;12.90;;;2.10;;
4835;SDS011;2432;51.226;6.904;2022-12-29T15:35:28;11.50;;;1.80;;
4835;SDS011;2432;51.226;6.904;2022-12-29T15:38:00;12.10;;;2.23;;
4835;SDS011;2432;51.226;6.904;2022-12-29T15:40:43;11.87;;;2.40;;
4835;SDS011;2432;51.226;6.904;2022-12-29T15:45:41;12.27;;;2.07;;
4835;SDS011;2432;51.226;6.904;2022-12-29T15:48:13;13.57;;;2.17;;
4835;SDS011;2432;51.226;6.904;2022-12-29T15:50:45;15.30;;;2.07;;
4835;SDS011;2432;51.226;6.904;2022-12-29T15:53:16;17.40;;;2.30;;
4835;SDS011;2432;51.226;6.904;2022-12-29T15:55:50;12.73;;;2.20;;
4835;SDS011;2432;51.226;6.904;2022-12-29T15:58:24;11.20;;;1.87;;
4835;SDS011;2432;51.226;6.904;2022-12-29T16:00:57;17.93;;;1.90;;
4835;SDS011;2432;51.226;6.904;2022-12-29T16:03:26;14.13;;;2.10;;
4835;SDS011;2432;51.226;6.904;2022-12-29T16:05:58;11.60;;;2.27;;
4835;SDS011;2432;51.226;6.904;2022-12-29T16:08:35;15.20;;;2.20;;
4835;SDS011;2432;51.226;6.904;2022-12-29T16:11:24;15.20;;;2.30;;
4835;SDS011;2432;51.226;6.904;2022-12-29T16:13:55;15.03;;;2.10;;
4835;SDS011;2432;51.226;6.904;2022-12-29T16:16:25;17.23;;;2.43;;
4835;SDS011;2432;51.226;6.904;2022-12-29T16:18:55;15.80;;;2.40;;
4835;SDS011;2432;51.226;6.904;2022-12-29T16:24:00;15.43;;;2.60;;
4835;SDS011;2432;51.226;6.904;2022-12-29T16:26:30;15.80;;;2.53;;
4835;SDS011;2432;51.226;6.904;2022-12-29T16:28:58;15.07;;;2.27;;
4835;SDS011;2432;51.226;6.904;2022-12-29T16:34:23;12.50;;;2.00;;
4835;SDS011;2432;51.226;6.904;2022-12-29T16:36:58;14.57;;;2.37;;
4835;SDS011;2432;51.226;6.904;2022-12-29T16:39:32;12.77;;;2.57;;
4835;SDS011;2432;51.226;6.904;2022-12-29T16:42:01;13.30;;;2.30;;
4835;SDS011;2432;51.226;6.904;2022-12-29T16:44:47;13.43;;;2.10;;
4835;SDS011;2432;51.226;6.904;2022-12-29T16:49:41;16.30;;;2.80;;
4835;SDS011;2432;51.226;6.904;2022-12-29T16:52:25;15.57;;;2.00;;
4835;SDS011;2432;51.226;6.904;2022-12-29T16:54:59;13.40;;;2.87;;
4835;SDS011;2432;51.226;6.904;2022-12-29T16:57:30;22.30;;;3.10;;
4835;SDS011;2432;51.226;6.904;2022-12-29T17:00:04;14.20;;;2.50;;
4835;SDS011;2432;51.226;6.904;2022-12-29T17:02:33;15.80;;;2.50;;
4835;SDS011;2432;51.226;6.904;2022-12-29T17:05:12;18.03;;;3.43;;
4835;SDS011;2432;51.226;6.904;2022-12-29T17:07:40;20.27;;;3.20;;
4835;SDS011;2432;51.226;6.904;2022-12-29T17:10:06;17.73;;;3.43;;
4835;SDS011;2432;51.226;6.904;2022-12-29T17:12:33;20.67;;;2.80;;
4835;SDS011;2432;51.226;6.904;2022-12-29T17:15:02;12.67;;;2.70;;
4835;SDS011;2432;51.226;6.904;2022-12-29T17:17:39;19.53;;;3.20;;
4835;SDS011;2432;51.226;6.904;2022-12-29T17:20:15;18.27;;;2.77;;
4835;SDS011;2432;51.226;6.904;2022-12-29T17:22:42;16.83;;;2.53;;
4835;SDS011;2432;51.226;6.904;2022-12-29T17:25:13;19.80;;;3.40;;
4835;SDS011;2432;51.226;6.904;2022-12-29T17:27:46;21.37;;;2.70;;
4835;SDS011;2432;51.226;6.904;2022-12-29T17:30:17;17.10;;;2.97;;
4835;SDS011;2432;51.226;6.904;2022-12-29T17:32:57;19.20;;;3.00;;
4835;SDS011;2432;51.226;6.904;2022-12-29T17:35:26;15.73;;;3.50;;
4835;SDS011;2432;51.226;6.904;2022-12-29T17:37:53;15.63;;;2.87;;
4835;SDS011;2432;51.226;6.904;2022-12-29T17:42:48;19.63;;;2.87;;
4835;SDS011;2432;51.226;6.904;2022-12-29T17:45:25;18.23;;;3.27;;
4835;SDS011;2432;51.226;6.904;2022-12-29T17:47:56;14.77;;;2.60;;
4835;SDS011;2432;51.226;6.904;2022-12-29T17:50:27;21.30;;;3.00;;
4835;SDS011;2432;51.226;6.904;2022-12-29T17:52:56;22.23;;;2.90;;
4835;SDS011;2432;51.226;6.904;2022-12-29T17:55:26;18.90;;;3.30;;
4835;SDS011;2432;51.226;6.904;2022-12-29T17:58:35;16.27;;;3.00;;